Time;durP1;ratioP1;P1;durP2;ratioP2;P2;SDS_P1;SDS_P2;PMS_P1;PMS_P2;Temp;Humidity;BMP_temperature;BMP_pressure;BME280_temperature;BME280_humidity;BME280_pressure;Samples;Min_cycle;Max_cycle;Signal;HPM_P1;HPM_P2
2022/11/04 00:02:48;;;;;;;;;;;12.20;99.90;;;10.12;97.46;99925.53;10349298;28;19965;-82
2022/11/04 00:13:12;;;;;;;;;;;12.20;99.90;;;10.15;97.61;99919.91;10366283;28;19934;-82
2022/11/04 00:18:15;;;;;;;;;;;12.20;99.90;;;10.13;97.51;99913.94;10345642;28;19934;-81
2022/11/04 00:28:42;;;;;;;;;;;12.20;99.90;;;10.12;97.71;99901.66;10351308;28;20402;-81
2022/11/04 00:33:47;;;;;;;;;;;12.20;99.90;;;10.14;97.66;99894.38;10326993;28;19934;-81
2022/11/04 00:38:50;;;;;;;;;;;12.20;99.90;;;10.18;97.57;99890.34;10349397;28;19934;-81
2022/11/04 00:43:57;;;;;;;;;;;12.20;99.90;;;10.22;97.74;99874.91;10336262;28;19985;-81
2022/11/04 00:49:00;;;;;;;;;;;12.30;99.90;;;10.18;97.58;99867.28;10321789;28;19934;-80
2022/11/04 00:54:04;;;;;;;;;;;12.30;99.90;;;10.22;97.56;99861.63;10330793;28;19941;-81
2022/11/04 00:59:07;;;;;;;;;;;12.30;99.90;;;10.23;97.73;99856.16;10353698;28;19934;-81
2022/11/04 01:04:16;;;;;;;;;;;12.30;99.90;;;10.25;97.67;99846.19;10332107;28;19941;-81
2022/11/04 01:09:19;;;;;;;;;;;12.40;99.90;;;10.25;97.58;99843.53;10368613;28;19933;-81
2022/11/04 01:14:22;;;;;;;;;;;12.40;99.90;;;10.27;97.75;99835.41;10344174;28;20036;-82
2022/11/04 01:19:24;;;;;;;;;;;12.40;99.90;;;10.29;97.61;99836.06;10329178;28;19963;-82
2022/11/04 01:24:27;;;;;;;;;;;12.40;99.90;;;10.28;97.59;99821.94;10346690;28;19933;-82
2022/11/04 01:29:30;;;;;;;;;;;12.40;99.90;;;10.28;97.50;99821.94;10361648;28;20409;-81
2022/11/04 01:34:33;;;;;;;;;;;12.40;99.90;;;10.29;97.67;99812.97;10337453;28;19941;-82
2022/11/04 01:39:42;;;;;;;;;;;12.40;99.90;;;10.29;97.60;99793.56;10331639;28;19934;-82
2022/11/04 01:45:04;;;;;;;;;;;12.40;99.90;;;10.28;97.45;99800.72;10313019;28;19934;-82
2022/11/04 01:50:12;;;;;;;;;;;12.30;99.90;;;10.29;97.71;99780.28;10324390;28;19942;-82
2022/11/04 01:55:21;;;;;;;;;;;12.40;99.90;;;10.29;97.70;99770.50;10340231;28;20398;-81
2022/11/04 02:00:24;;;;;;;;;;;12.40;99.90;;;10.29;97.87;99759.88;10319748;28;20235;-81
2022/11/04 02:05:28;;;;;;;;;;;12.40;99.90;;;10.28;97.79;99752.91;10330324;28;19934;-81
2022/11/04 02:10:32;;;;;;;;;;;12.40;99.90;;;10.28;97.83;99741.47;10331573;28;20381;-81
2022/11/04 02:16:03;;;;;;;;;;;12.40;99.90;;;10.28;97.98;99738.81;10338769;28;19941;-81
2022/11/04 02:21:15;;;;;;;;;;;12.40;99.90;;;10.29;98.18;99743.94;10327784;28;19934;-81
2022/11/04 02:26:40;;;;;;;;;;;12.40;99.90;;;10.30;98.29;99740.25;10328824;28;19941;-81
2022/11/04 02:32:11;;;;;;;;;;;12.40;99.90;;;10.29;98.29;99725.34;10364634;28;20295;-82
2022/11/04 02:37:26;;;;;;;;;;;12.40;99.90;;;10.27;98.51;99714.09;10351662;28;20390;-83
2022/11/04 02:42:38;;;;;;;;;;;12.30;99.90;;;10.28;98.73;99713.06;10344033;28;19981;-82
2022/11/04 02:47:44;;;;;;;;;;;12.30;99.90;;;10.21;98.70;99687.38;10348788;28;20389;-82
2022/11/04 02:53:01;;;;;;;;;;;12.30;99.90;;;10.20;98.84;99702.50;10353043;28;19934;-82
2022/11/04 02:58:10;;;;;;;;;;;12.20;99.90;;;10.14;98.79;99688.09;10373954;28;19941;-82
2022/11/04 03:03:25;;;;;;;;;;;12.20;99.90;;;10.11;98.88;99687.59;10337724;28;19934;-82
2022/11/04 03:08:34;;;;;;;;;;;12.10;99.90;;;10.07;98.95;99675.69;10306068;28;19934;-81
2022/11/04 03:13:59;;;;;;;;;;;12.10;99.90;;;10.06;99.06;99687.31;10333295;28;19934;-81
2022/11/04 03:19:20;;;;;;;;;;;12.10;99.90;;;10.02;99.02;99678.06;10352566;28;19934;-81
2022/11/04 03:24:23;;;;;;;;;;;12.00;99.90;;;10.00;99.26;99667.59;10339049;28;19934;-81
2022/11/04 03:29:38;;;;;;;;;;;12.00;99.90;;;9.99;99.03;99665.13;10327683;28;19934;-81
2022/11/04 03:34:41;;;;;;;;;;;12.00;99.90;;;9.95;98.96;99655.88;10332974;28;19933;-81
2022/11/04 03:39:44;;;;;;;;;;;11.90;99.90;;;9.89;98.74;99654.75;10351911;28;19933;-81
2022/11/04 03:44:52;;;;;;;;;;;11.90;99.90;;;9.86;98.66;99653.28;10342843;28;20372;-81
2022/11/04 03:50:07;;;;;;;;;;;11.90;99.90;;;9.83;98.68;99643.00;10332998;28;19934;-81
2022/11/04 03:55:11;;;;;;;;;;;11.90;99.90;;;9.78;98.55;99629.47;10326526;28;19957;-81
2022/11/04 04:00:17;;;;;;;;;;;11.80;99.90;;;9.72;98.47;99624.03;10361292;28;19938;-83
2022/11/04 04:05:40;;;;;;;;;;;11.80;99.90;;;9.68;98.58;99610.28;10332292;28;20362;-83
2022/11/04 04:11:07;;;;;;;;;;;11.80;99.90;;;9.68;98.49;99615.59;10324707;28;20305;-83
2022/11/04 04:16:31;;;;;;;;;;;11.70;99.90;;;9.64;98.57;99601.84;10362511;28;20405;-83
2022/11/04 04:21:39;;;;;;;;;;;11.70;99.90;;;9.60;98.63;99613.00;10355518;28;19941;-83
2022/11/04 04:32:05;;;;;;;;;;;11.60;99.90;;;9.47;98.90;99591.50;10337267;28;19941;-81
2022/11/04 04:37:16;;;;;;;;;;;11.50;99.90;;;9.41;99.04;99581.59;10335642;28;20420;-81
2022/11/04 04:47:43;;;;;;;;;;;11.40;99.90;;;9.38;99.42;99583.63;10344637;28;19933;-83
2022/11/04 04:52:52;;;;;;;;;;;11.40;99.90;;;9.35;99.63;99589.25;10318997;28;20374;-83
2022/11/04 04:57:55;;;;;;;;;;;11.40;99.90;;;9.32;99.76;99581.66;10351397;28;19934;-83
2022/11/04 05:02:58;;;;;;;;;;;11.40;99.90;;;9.29;99.83;99576.69;10375451;28;19934;-81
2022/11/04 05:08:05;;;;;;;;;;;11.40;99.90;;;9.21;99.90;99568.81;10338590;28;19941;-86
2022/11/04 05:13:28;;;;;;;;;;;11.30;99.90;;;9.20;100.00;99572.47;10327077;28;20018;-85
2022/11/04 05:18:31;;;;;;;;;;;11.30;99.90;;;9.19;100.00;99594.66;10323052;28;20001;-86
2022/11/04 05:23:34;;;;;;;;;;;11.30;99.90;;;9.21;100.00;99597.13;10325937;28;20065;-85
2022/11/04 05:28:37;;;;;;;;;;;11.30;99.90;;;9.14;100.00;99594.34;10362888;28;20471;-86
2022/11/04 05:33:41;;;;;;;;;;;11.30;99.90;;;9.17;100.00;99594.00;10346478;28;20461;-86
2022/11/04 05:38:49;;;;;;;;;;;11.20;99.90;;;9.14;100.00;99588.22;10321985;28;20033;-86
2022/11/04 05:43:57;;;;;;;;;;;11.20;99.90;;;9.13;100.00;99581.28;10324479;28;19933;-86
2022/11/04 05:49:00;;;;;;;;;;;11.20;99.90;;;9.10;100.00;99577.13;10347773;28;19941;-87
2022/11/04 05:54:03;;;;;;;;;;;11.20;99.90;;;9.09;100.00;99575.50;10342495;28;19934;-88
2022/11/04 05:59:06;;;;;;;;;;;11.20;99.90;;;9.07;100.00;99577.50;10361136;28;19941;-88
2022/11/04 06:04:14;;;;;;;;;;;11.20;99.90;;;9.04;100.00;99578.66;10341525;28;19997;-86
2022/11/04 06:09:17;;;;;;;;;;;11.10;99.90;;;9.05;100.00;99590.06;10355674;28;20032;-85
2022/11/04 06:14:20;;;;;;;;;;;11.20;99.90;;;9.09;100.00;99602.00;10344060;28;20032;-85
2022/11/04 06:19:23;;;;;;;;;;;11.20;99.90;;;9.09;100.00;99600.16;10358845;28;19957;-86
2022/11/04 06:24:26;;;;;;;;;;;11.20;99.90;;;9.04;100.00;99596.38;10341636;28;19941;-85
2022/11/04 06:29:28;;;;;;;;;;;11.20;99.90;;;9.00;100.00;99597.75;10330498;28;20474;-85
2022/11/04 06:34:31;;;;;;;;;;;11.10;99.90;;;9.00;100.00;99603.03;10329360;28;19941;-85
2022/11/04 06:39:34;;;;;;;;;;;11.10;99.90;;;8.98;100.00;99615.63;10338313;28;19985;-85
2022/11/04 06:44:38;;;;;;;;;;;11.10;99.90;;;8.92;100.00;99608.38;10361059;28;19938;-85
2022/11/04 06:49:43;;;;;;;;;;;11.10;99.90;;;8.90;100.00;99607.72;10332425;28;19934;-87
2022/11/04 06:54:46;;;;;;;;;;;11.00;99.90;;;8.88;100.00;99599.13;10344330;28;19938;-85
2022/11/04 06:59:49;;;;;;;;;;;11.00;99.90;;;8.91;100.00;99601.41;10361561;28;19938;-86
2022/11/04 07:04:53;;;;;;;;;;;10.90;99.90;;;8.92;100.00;99595.94;10360626;28;19980;-86
2022/11/04 07:09:56;;;;;;;;;;;11.00;99.90;;;8.91;100.00;99593.47;10319754;28;20424;-85
2022/11/04 07:14:59;;;;;;;;;;;11.00;99.90;;;8.95;100.00;99598.25;10331283;28;19934;-85
2022/11/04 07:20:04;;;;;;;;;;;11.00;99.90;;;8.97;100.00;99603.38;10338552;28;19934;-86
2022/11/04 07:25:08;;;;;;;;;;;11.10;99.90;;;9.00;100.00;99600.41;10344941;28;20421;-85
2022/11/04 07:30:11;;;;;;;;;;;11.10;99.90;;;9.00;100.00;99605.69;10346506;28;19932;-85
2022/11/04 07:35:14;;;;;;;;;;;11.10;99.90;;;9.04;100.00;99605.16;10343208;28;20326;-85
2022/11/04 07:40:17;;;;;;;;;;;11.10;99.90;;;9.06;100.00;99603.19;10340594;28;19934;-85
2022/11/04 07:45:19;;;;;;;;;;;11.10;99.90;;;9.08;100.00;99589.75;10365049;28;19941;-85
2022/11/04 07:50:22;;;;;;;;;;;11.20;99.90;;;9.10;100.00;99582.44;10307310;28;20402;-85
2022/11/04 07:55:25;;;;;;;;;;;11.20;99.90;;;9.15;100.00;99569.50;10303347;28;19985;-85
2022/11/04 08:00:28;;;;;;;;;;;11.20;99.90;;;9.18;100.00;99579.78;10342489;28;19940;-85
2022/11/04 08:05:31;;;;;;;;;;;11.30;99.90;;;9.20;100.00;99561.84;10349987;28;19961;-85
2022/11/04 08:10:34;;;;;;;;;;;11.30;99.90;;;9.17;100.00;99556.88;10366375;28;19940;-86
2022/11/04 08:15:37;;;;;;;;;;;11.30;99.90;;;9.18;99.96;99547.97;10349432;28;19934;-85
2022/11/04 08:20:40;;;;;;;;;;;11.30;99.90;;;9.18;100.00;99542.66;10337637;28;20382;-85
2022/11/04 08:25:43;;;;;;;;;;;11.20;99.90;;;9.22;99.96;99549.25;10346625;28;19969;-86
2022/11/04 08:30:57;;;;;;;;;;;11.30;99.90;;;9.21;99.68;99550.25;10343038;28;19989;-85
2022/11/04 08:36:08;;;;;;;;;;;11.30;99.90;;;9.21;99.55;99541.47;10340003;28;19933;-86
2022/11/04 08:41:13;;;;;;;;;;;11.30;99.90;;;9.22;99.52;99538.63;10346905;28;20377;-86
2022/11/04 08:46:16;;;;;;;;;;;11.30;99.90;;;9.21;99.49;99537.00;10348731;28;19985;-86
2022/11/04 08:51:23;;;;;;;;;;;11.30;99.90;;;9.18;99.44;99540.00;10347818;28;20005;-86
2022/11/04 08:56:29;;;;;;;;;;;11.30;99.90;;;9.17;99.30;99537.50;10332557;28;19938;-86
2022/11/04 09:01:34;;;;;;;;;;;11.30;99.90;;;9.12;99.32;99540.69;10308286;28;19934;-86
2022/11/04 09:06:41;;;;;;;;;;;11.30;99.90;;;9.11;99.35;99528.44;10358390;28;19933;-86
2022/11/04 09:11:45;;;;;;;;;;;11.20;99.90;;;9.08;99.38;99518.19;10360975;28;19984;-86
2022/11/04 09:16:48;;;;;;;;;;;11.20;99.90;;;9.13;99.40;99521.16;10322667;28;19934;-86
2022/11/04 09:21:51;;;;;;;;;;;11.30;99.90;;;9.14;99.38;99509.53;10380512;28;19940;-86
2022/11/04 09:26:54;;;;;;;;;;;11.30;99.90;;;9.19;99.04;99516.97;10346550;28;19934;-86
2022/11/04 09:31:57;;;;;;;;;;;11.30;99.90;;;9.20;99.06;99503.53;10336905;28;19973;-85
2022/11/04 09:37:00;;;;;;;;;;;11.40;99.90;;;9.30;98.59;99493.53;10308529;28;19969;-85
2022/11/04 09:42:16;;;;;;;;;;;11.40;99.90;;;9.30;98.61;99504.13;10335423;28;19934;-86
2022/11/04 09:47:21;;;;;;;;;;;11.40;99.90;;;9.28;98.81;99484.91;10357678;28;19934;-85
2022/11/04 09:52:30;;;;;;;;;;;11.40;99.90;;;9.31;99.05;99486.41;10322211;28;19943;-86
2022/11/04 09:57:33;;;;;;;;;;;11.40;99.90;;;9.24;99.07;99480.97;10338232;28;19934;-85
2022/11/04 10:02:50;;;;;;;;;;;11.30;99.90;;;9.20;99.11;99482.31;10281693;28;20021;-85
2022/11/04 10:08:22;;;;;;;;;;;11.30;99.90;;;9.16;99.47;99482.84;10283213;28;19957;-86
2022/11/04 10:13:40;;;;;;;;;;;11.20;99.90;;;9.13;99.51;99475.25;10298390;28;19934;-86
2022/11/04 10:19:16;;;;;;;;;;;11.20;99.90;;;9.12;99.93;99469.13;10297490;28;19935;-85
2022/11/04 10:24:42;;;;;;;;;;;11.20;99.90;;;9.16;100.00;99462.47;10291533;28;19934;-86
2022/11/04 10:29:53;;;;;;;;;;;11.20;99.90;;;9.15;100.00;99446.75;10323968;28;20325;-85
2022/11/04 10:35:00;;;;;;;;;;;11.30;99.90;;;9.17;100.00;99432.28;10312631;28;20377;-88
2022/11/04 10:40:18;;;;;;;;;;;11.30;99.90;;;9.17;100.00;99437.59;10291419;28;19941;-87
2022/11/04 10:45:29;;;;;;;;;;;11.30;99.90;;;9.15;100.00;99422.88;10342875;28;19973;-88
2022/11/04 10:50:40;;;;;;;;;;;11.30;99.90;;;9.08;100.00;99420.13;10342034;28;20028;-87
2022/11/04 10:56:05;;;;;;;;;;;11.20;99.90;;;9.03;100.00;99419.81;10361625;28;19933;-88
2022/11/04 11:01:29;;;;;;;;;;;11.20;99.90;;;8.98;100.00;99408.94;10365028;28;20025;-88
2022/11/04 11:06:35;;;;;;;;;;;11.10;99.90;;;8.86;100.00;99403.22;10330290;28;19934;-87
2022/11/04 11:11:49;;;;;;;;;;;11.00;99.90;;;8.81;100.00;99395.78;10345119;28;19980;-87
2022/11/04 11:16:54;;;;;;;;;;;10.90;99.90;;;8.78;100.00;99396.16;10360713;28;19941;-87
2022/11/04 11:21:56;;;;;;;;;;;10.90;99.90;;;8.76;100.00;99392.88;10359523;28;19933;-87
2022/11/04 11:27:02;;;;;;;;;;;10.90;99.90;;;8.75;100.00;99393.84;10344044;28;19934;-86
2022/11/04 11:32:15;;;;;;;;;;;10.90;99.90;;;8.83;100.00;99380.56;10347203;28;19934;-86
2022/11/04 11:37:21;;;;;;;;;;;10.90;99.90;;;8.93;100.00;99379.47;10339284;28;19934;-86
2022/11/04 11:42:25;;;;;;;;;;;11.10;99.90;;;8.99;100.00;99362.88;10336267;28;20270;-87
2022/11/04 11:47:27;;;;;;;;;;;11.10;99.90;;;9.08;100.00;99367.13;10326097;28;20032;-86
2022/11/04 11:52:33;;;;;;;;;;;11.20;99.90;;;9.10;100.00;99354.50;10344319;28;19934;-86
2022/11/04 11:57:45;;;;;;;;;;;11.20;99.90;;;9.24;100.00;99356.38;10350547;28;20028;-86
2022/11/04 12:03:10;;;;;;;;;;;11.40;99.90;;;9.32;100.00;99345.69;10334777;28;19942;-86
2022/11/04 12:08:42;;;;;;;;;;;11.50;99.90;;;9.35;100.00;99336.53;10350556;28;19977;-85
2022/11/04 12:14:16;;;;;;;;;;;11.50;99.90;;;9.36;100.00;99322.31;10352679;28;20047;-86
2022/11/04 12:20:04;;;;;;;;;;;11.50;99.90;;;9.41;100.00;99316.44;10351391;28;19957;-87
2022/11/04 12:25:20;;;;;;;;;;;11.60;99.90;;;9.38;100.00;99305.19;10357164;28;19934;-86
2022/11/04 12:30:24;;;;;;;;;;;11.50;99.90;;;9.38;100.00;99291.94;10349561;28;20033;-86
2022/11/04 12:35:54;;;;;;;;;;;11.60;99.90;;;9.47;100.00;99300.63;10315719;28;19934;-86
2022/11/04 12:41:27;;;;;;;;;;;11.60;99.90;;;9.52;100.00;99289.47;10361385;28;19958;-86
2022/11/04 12:46:56;;;;;;;;;;;11.70;99.90;;;9.53;100.00;99278.66;10324959;28;19942;-86
2022/11/04 12:52:24;;;;;;;;;;;11.70;99.90;;;9.60;100.00;99262.88;10337656;28;19933;-87
2022/11/04 12:57:56;;;;;;;;;;;11.70;99.90;;;9.61;100.00;99262.69;10340091;28;31011;-86
2022/11/04 13:03:15;;;;;;;;;;;11.70;99.90;;;9.70;100.00;99267.88;10349182;28;19933;-86
2022/11/04 13:08:30;;;;;;;;;;;11.80;99.90;;;9.77;100.00;99260.81;10328811;28;19941;-86
2022/11/04 13:13:37;;;;;;;;;;;11.90;99.90;;;9.79;100.00;99254.31;10347083;28;19956;-86
2022/11/04 13:18:40;;;;;;;;;;;11.90;99.90;;;9.83;100.00;99250.28;10326260;28;19934;-85
2022/11/04 13:23:46;;;;;;;;;;;11.90;99.90;;;9.80;100.00;99244.53;10347383;28;20401;-86
2022/11/04 13:29:06;;;;;;;;;;;12.00;99.90;;;9.84;100.00;99254.59;10363524;28;19941;-86
2022/11/04 13:34:22;;;;;;;;;;;12.00;99.90;;;9.91;100.00;99252.84;10310047;28;19935;-86
2022/11/04 13:39:41;;;;;;;;;;;12.00;99.90;;;9.97;100.00;99235.34;10345475;28;20310;-87
2022/11/04 13:44:47;;;;;;;;;;;12.10;99.90;;;10.03;100.00;99233.78;10348643;28;19933;-86
2022/11/04 13:49:54;;;;;;;;;;;12.10;99.90;;;10.00;100.00;99223.53;10339685;28;20350;-86
2022/11/04 13:55:02;;;;;;;;;;;12.20;99.90;;;10.00;100.00;99223.53;10308236;28;20025;-86
2022/11/04 14:00:11;;;;;;;;;;;12.10;99.90;;;10.02;100.00;99235.59;10306437;28;19941;-87
2022/11/04 14:05:27;;;;;;;;;;;12.10;99.90;;;10.01;100.00;99220.66;10343709;28;19940;-86
2022/11/04 14:10:53;;;;;;;;;;;12.10;99.90;;;10.02;100.00;99216.22;10362977;28;19938;-86
2022/11/04 14:16:31;;;;;;;;;;;12.10;99.90;;;10.03;100.00;99225.81;10335122;28;19941;-86
2022/11/04 14:21:55;;;;;;;;;;;12.10;99.90;;;10.01;100.00;99220.66;10362498;28;19934;-86
2022/11/04 14:26:58;;;;;;;;;;;12.10;99.90;;;10.00;100.00;99220.88;10364020;28;19934;-86
2022/11/04 14:32:10;;;;;;;;;;;12.20;99.90;;;10.00;100.00;99208.41;10362289;28;20317;-86
2022/11/04 14:37:24;;;;;;;;;;;12.10;99.90;;;10.02;100.00;99200.28;10347623;28;19934;-86
2022/11/04 14:42:44;;;;;;;;;;;12.10;99.90;;;10.01;100.00;99199.44;10339370;28;20006;-86
2022/11/04 14:47:50;;;;;;;;;;;12.10;99.90;;;10.03;100.00;99181.50;10326006;28;20000;-85
2022/11/04 14:53:04;;;;;;;;;;;12.10;99.90;;;10.04;100.00;99161.09;10344614;28;19940;-85
2022/11/04 14:58:26;;;;;;;;;;;12.10;99.90;;;10.04;100.00;99182.31;10358987;28;19965;-85
2022/11/04 15:03:37;;;;;;;;;;;12.10;99.90;;;10.05;100.00;99179.47;10347066;28;19934;-86
2022/11/04 15:09:00;;;;;;;;;;;12.10;99.90;;;10.08;100.00;99184.44;10346188;28;19934;-85
2022/11/04 15:14:28;;;;;;;;;;;12.20;99.90;;;10.09;100.00;99180.75;10360968;28;20402;-85
2022/11/04 15:19:34;;;;;;;;;;;12.20;99.90;;;10.08;100.00;99173.00;10342302;28;20369;-87
2022/11/04 15:24:37;;;;;;;;;;;12.10;99.90;;;10.08;100.00;99167.69;10343950;28;20393;-87
2022/11/04 15:29:40;;;;;;;;;;;12.10;99.90;;;10.05;100.00;99182.13;10329039;28;20355;-88
2022/11/04 15:34:44;;;;;;;;;;;12.10;99.90;;;10.02;100.00;99179.06;10323764;28;20005;-88
2022/11/04 15:39:49;;;;;;;;;;;12.10;99.90;;;10.01;100.00;99182.69;10328307;28;19985;-88
2022/11/04 15:44:53;;;;;;;;;;;12.10;99.90;;;9.96;100.00;99172.66;10347819;28;19965;-89
2022/11/04 15:50:15;;;;;;;;;;;12.00;99.90;;;9.99;100.00;99166.97;10335195;28;19955;-90
2022/11/04 15:55:26;;;;;;;;;;;12.10;99.90;;;9.91;100.00;99165.25;10362539;28;20452;-88
2022/11/04 16:00:29;;;;;;;;;;;12.10;99.90;;;9.91;100.00;99175.06;10349620;28;19957;-89
2022/11/04 16:05:36;;;;;;;;;;;12.00;99.90;;;9.89;100.00;99161.97;10331943;28;20477;-88
2022/11/04 16:10:41;;;;;;;;;;;12.00;99.90;;;9.90;100.00;99184.84;10320158;28;19934;-87
2022/11/04 16:16:01;;;;;;;;;;;12.00;99.90;;;9.90;100.00;99176.91;10318245;28;19934;-87
2022/11/04 16:21:30;;;;;;;;;;;12.00;99.90;;;9.91;100.00;99178.53;10338470;28;19941;-87
2022/11/04 16:26:42;;;;;;;;;;;12.00;99.90;;;9.93;100.00;99186.28;10363634;28;19985;-87
2022/11/04 16:31:45;;;;;;;;;;;12.00;99.90;;;9.92;100.00;99196.09;10364039;28;20361;-87
2022/11/04 16:36:48;;;;;;;;;;;12.00;99.90;;;9.94;100.00;99193.25;10373391;28;19934;-86
2022/11/04 16:41:51;;;;;;;;;;;12.00;99.90;;;9.93;100.00;99173.84;10335431;28;20032;-86
2022/11/04 16:46:55;;;;;;;;;;;12.10;99.90;;;9.95;100.00;99176.31;10334858;28;19974;-87
2022/11/04 16:52:04;;;;;;;;;;;12.10;99.90;;;9.92;100.00;99174.88;10313246;28;19935;-86
2022/11/04 16:57:10;;;;;;;;;;;12.10;99.90;;;9.97;100.00;99179.63;10336312;28;19934;-85
2022/11/04 17:02:16;;;;;;;;;;;12.10;99.90;;;9.99;100.00;99171.44;10308385;28;19962;-84
2022/11/04 17:07:19;;;;;;;;;;;12.10;99.90;;;9.96;100.00;99169.19;10314201;28;19984;-84
2022/11/04 17:12:42;;;;;;;;;;;12.10;99.90;;;9.92;100.00;99172.22;10333277;28;19957;-83
2022/11/04 17:17:46;;;;;;;;;;;12.00;99.90;;;9.89;100.00;99180.53;10339689;28;20033;-84
2022/11/04 17:22:51;;;;;;;;;;;12.00;99.90;;;9.86;100.00;99183.56;10335344;28;19957;-83
2022/11/04 17:27:54;;;;;;;;;;;11.90;99.90;;;9.85;100.00;99183.78;10337813;28;19993;-84
2022/11/04 17:32:57;;;;;;;;;;;11.90;99.90;;;9.85;100.00;99173.97;10315470;28;19934;-84
2022/11/04 17:38:00;;;;;;;;;;;11.90;99.90;;;9.88;100.00;99176.25;10313014;28;19969;-84
2022/11/04 17:48:27;;;;;;;;;;;11.90;99.90;;;9.92;100.00;99160.78;10327618;28;20424;-83
2022/11/04 17:53:30;;;;;;;;;;;12.00;99.90;;;9.96;100.00;99166.53;10344542;28;19934;-83
2022/11/04 17:58:33;;;;;;;;;;;12.00;99.90;;;9.98;100.00;99180.44;10343843;28;19988;-83
2022/11/04 18:03:36;;;;;;;;;;;12.00;99.90;;;9.98;100.00;99161.84;10361522;28;19985;-82
2022/11/04 18:08:39;;;;;;;;;;;12.10;99.90;;;10.02;100.00;99163.94;10343227;28;20300;-83
2022/11/04 18:13:42;;;;;;;;;;;12.10;99.90;;;10.03;100.00;99175.38;10346252;28;19934;-82
2022/11/04 18:18:45;;;;;;;;;;;12.10;99.90;;;10.08;100.00;99167.69;10342314;28;19973;-83
2022/11/04 18:23:47;;;;;;;;;;;12.10;99.90;;;10.09;100.00;99164.00;10344677;28;19993;-83
2022/11/04 18:28:50;;;;;;;;;;;12.20;99.90;;;10.08;100.00;99157.06;10340673;28;19933;-83
2022/11/04 18:33:54;;;;;;;;;;;12.20;99.90;;;10.06;100.00;99143.13;10367881;28;19934;-83
2022/11/04 18:38:59;;;;;;;;;;;12.20;99.90;;;10.05;100.00;99152.94;10328150;28;19989;-83
2022/11/04 18:44:03;;;;;;;;;;;12.10;99.90;;;10.03;100.00;99212.53;10347742;28;19934;-82
2022/11/04 18:49:06;;;;;;;;;;;12.10;99.90;;;9.92;100.00;99238.56;10341361;28;20032;-82
2022/11/04 18:54:09;;;;;;;;;;;12.00;99.90;;;9.91;100.00;99218.34;10337507;28;19934;-90
2022/11/04 18:59:14;;;;;;;;;;;12.00;99.90;;;9.93;100.00;99237.53;10322542;28;20025;-85
2022/11/04 19:04:17;;;;;;;;;;;12.00;99.90;;;9.95;100.00;99215.28;10341747;28;20314;-85
2022/11/04 19:09:21;;;;;;;;;;;12.00;99.90;;;9.98;100.00;99205.13;10339639;28;19933;-85
2022/11/04 19:14:44;;;;;;;;;;;12.00;99.90;;;10.01;100.00;99233.94;10317808;28;19933;-85
2022/11/04 19:19:47;;;;;;;;;;;12.10;99.90;;;10.03;100.00;99208.06;10358417;28;19933;-85
2022/11/04 19:24:50;;;;;;;;;;;12.10;99.90;;;10.06;100.00;99196.22;10342608;28;20318;-83
2022/11/04 19:29:53;;;;;;;;;;;12.10;99.90;;;10.11;100.00;99196.47;10350642;28;19934;-82
2022/11/04 19:34:56;;;;;;;;;;;12.20;99.90;;;10.16;100.00;99191.44;10330354;28;19934;-82
2022/11/04 19:39:59;;;;;;;;;;;12.30;99.90;;;10.19;100.00;99196.34;10327080;28;19973;-82
2022/11/04 19:45:03;;;;;;;;;;;12.30;99.90;;;10.21;100.00;99188.22;10345731;28;19940;-82
2022/11/04 19:50:06;;;;;;;;;;;12.30;99.90;;;10.24;100.00;99201.94;10327001;28;19933;-81
2022/11/04 19:55:10;;;;;;;;;;;12.30;99.90;;;10.25;100.00;99198.28;10343629;28;19934;-82
2022/11/04 20:00:13;;;;;;;;;;;12.30;99.90;;;10.26;100.00;99207.09;10343098;28;19934;-82
2022/11/04 20:05:16;;;;;;;;;;;12.40;99.90;;;10.27;100.00;99209.56;10341835;28;19977;-82
2022/11/04 20:10:21;;;;;;;;;;;12.40;99.90;;;10.29;100.00;99193.41;10343835;28;19969;-81
2022/11/04 20:15:25;;;;;;;;;;;12.40;99.90;;;10.30;100.00;99189.75;10378562;28;19934;-84
2022/11/04 20:20:27;;;;;;;;;;;12.40;99.90;;;10.32;100.00;99201.03;10346015;28;19934;-81
2022/11/04 20:25:30;;;;;;;;;;;12.40;99.90;;;10.30;100.00;99218.97;10347534;28;20024;-82
2022/11/04 20:30:37;;;;;;;;;;;12.40;99.90;;;10.28;100.00;99216.50;10336833;28;19938;-82
2022/11/04 20:35:40;;;;;;;;;;;12.40;99.90;;;10.28;100.00;99221.81;10365258;28;19941;-83
2022/11/04 20:40:45;;;;;;;;;;;12.40;99.90;;;10.30;100.00;99230.41;10342065;28;19934;-83
2022/11/04 20:45:48;;;;;;;;;;;12.40;99.90;;;10.28;100.00;99227.13;10361437;28;19934;-82
2022/11/04 20:50:54;;;;;;;;;;;12.40;99.90;;;10.28;100.00;99221.00;10342477;28;20306;-83
2022/11/04 20:55:57;;;;;;;;;;;12.40;99.90;;;10.28;100.00;99224.47;10366364;28;19965;-82
2022/11/04 21:01:02;;;;;;;;;;;12.40;99.90;;;10.27;100.00;99233.44;10376865;28;20026;-83
2022/11/04 21:06:05;;;;;;;;;;;12.40;99.90;;;10.25;100.00;99222.16;10347747;28;19934;-83
2022/11/04 21:11:07;;;;;;;;;;;12.40;99.90;;;10.22;100.00;99233.16;10358364;28;20393;-83
2022/11/04 21:16:12;;;;;;;;;;;12.30;99.90;;;10.21;100.00;99220.91;10332192;28;20033;-82
2022/11/04 21:21:16;;;;;;;;;;;12.30;99.90;;;10.22;100.00;99238.47;10365690;28;20441;-86
2022/11/04 21:26:22;;;;;;;;;;;12.30;99.90;;;10.23;100.00;99242.78;10344454;28;19969;-84
2022/11/04 21:31:24;;;;;;;;;;;12.30;99.90;;;10.25;100.00;99246.06;10337443;28;19941;-81
2022/11/04 21:36:28;;;;;;;;;;;12.30;99.90;;;10.29;100.00;99254.50;10329076;28;19934;-83
2022/11/04 21:41:36;;;;;;;;;;;12.30;99.90;;;10.34;100.00;99268.03;10325627;28;19934;-82
2022/11/04 21:46:39;;;;;;;;;;;12.30;99.90;;;10.37;100.00;99267.63;10338387;28;20029;-82
2022/11/04 21:51:42;;;;;;;;;;;12.40;99.90;;;10.40;100.00;99273.41;10336968;28;19933;-82
2022/11/04 21:56:45;;;;;;;;;;;12.40;99.90;;;10.44;100.00;99271.22;10353308;28;19938;-82
2022/11/04 22:01:48;;;;;;;;;;;12.40;99.90;;;10.47;100.00;99272.66;10336773;28;20595;-82
2022/11/04 22:06:51;;;;;;;;;;;12.50;99.90;;;10.44;100.00;99269.38;10357403;28;19941;-81
2022/11/04 22:11:54;;;;;;;;;;;12.40;99.90;;;10.41;100.00;99264.41;10348802;28;20373;-82
2022/11/04 22:16:57;;;;;;;;;;;12.40;99.90;;;10.40;100.00;99262.78;10316690;28;20390;-81
2022/11/04 22:22:00;;;;;;;;;;;12.40;99.90;;;10.40;100.00;99267.28;10329454;28;20310;-82
2022/11/04 22:27:02;;;;;;;;;;;12.40;99.90;;;10.37;100.00;99267.63;10333579;28;19984;-81
2022/11/04 22:32:05;;;;;;;;;;;12.30;99.90;;;10.29;100.00;99262.47;10347884;28;19957;-81
2022/11/04 22:37:08;;;;;;;;;;;12.30;99.90;;;10.21;100.00;99268.69;10336138;28;19938;-81
2022/11/04 22:42:11;;;;;;;;;;;12.20;99.90;;;10.15;100.00;99274.75;10342252;28;19940;-81
2022/11/04 22:47:14;;;;;;;;;;;12.10;99.90;;;10.12;100.00;99275.94;10342124;28;20040;-81
2022/11/04 22:52:16;;;;;;;;;;;12.10;99.90;;;10.07;100.00;99274.84;10324843;28;19934;-81
2022/11/04 22:57:19;;;;;;;;;;;12.10;99.90;;;10.03;100.00;99266.44;10345540;28;19985;-81
2022/11/04 23:02:22;;;;;;;;;;;12.10;99.90;;;10.07;100.00;99278.31;10326170;28;19981;-82
2022/11/04 23:07:25;;;;;;;;;;;12.10;99.90;;;10.05;100.00;99264.41;10309961;28;19981;-82
2022/11/04 23:39:15;;;;;;;;;;;12.10;99.90;;;9.89;100.00;99284.03;10344446;28;19934;-83
